Latest Coastal Weather Observations for Low Rocky Point

IDT60701

Issued at 1:52 pm EDT Tuesday 17 January 2017 (issued every 10 minutes, with the page automatically refreshed every 10 minutes)

About coastal observations | Map of coastal stations | Coastal observations for TAS | Marine services | Other Formats
Station Details ID: 097080 Name: LOW ROCKY POINT Lat: -42.98 Lon: 145.50 Height: 34.0 m
Data from the previous 72 hours. | See also: Recent months at Low Rocky Point
Date/Time
EDT
Temp
°C
Wind Pressure Rain since
9am
mm
Weather Cloud Vis
km
Sea
Height
m
Swell
Dir  Spd
kts
Gust
kts
hPa Trend Height
m
Period
s
Dir
17/01:30pm 16.7 NW 22 27 1005.0 - 0.0 - - - - - - -
17/01:00pm 16.3 NW 21 25 1005.0 - 0.0 - - - - - - -
17/12:30pm 16.5 NW 20 25 1005.1 - 0.0 - - - - - - -
17/12:00pm 16.5 NW 19 24 1005.1 - 0.0 - - - - - - -
17/11:30am 16.3 NW 20 24 1005.1 - 0.0 - - - - - - -
17/11:00am 16.7 NW 19 23 1005.3 - 0.0 - - - - - - -
17/10:30am 16.4 NW 19 23 1005.6 - 0.0 - - - - - - -
17/10:00am 16.3 NNW 20 25 1005.8 - 0.0 - - - - - - -
17/09:30am 16.3 NW 19 23 1005.7 - 0.0 - - - - - - -
17/09:00am 16.1 NW 21 25 1005.9 - 0.2 - - - - - - -
17/08:30am 15.7 NW 21 25 1006.1 - 0.2 - - - - - - -
17/08:00am 15.7 NNW 22 27 1006.0 - 0.2 - - - - - - -
17/07:30am 15.4 NW 23 27 1005.9 - 0.2 - - - - - - -
17/07:00am 15.3 NNW 24 30 1005.9 - 0.2 - - - - - - -
17/06:30am 15.3 NNW 23 29 1005.8 - 0.2 - - - - - - -
17/06:00am 15.1 NW 23 28 1005.7 - 0.2 - - - - - - -
17/05:30am 15.1 NW 22 27 1005.6 - 0.2 - - - - - - -
17/05:00am 15.1 NW 22 26 1005.3 - 0.2 - - - - - - -
17/04:30am 15.1 NW 20 25 1005.1 - 0.2 - - - - - - -
17/04:00am 15.1 NW 21 24 1005.1 - 0.2 - - - - - - -
17/03:30am 15.1 NW 18 23 1005.1 - 0.2 - - - - - - -
17/03:00am 15.2 NW 18 23 1005.3 - 0.2 - - - - - - -
17/02:30am 15.2 NW 19 23 1005.4 - 0.2 - - - - - - -
17/02:00am 15.2 NW 21 26 1005.8 - 0.2 - - - - - - -
17/01:30am 15.3 NW 23 28 1006.2 - 0.2 - - - - - - -
17/01:00am 15.3 NW 23 28 1006.4 - 0.2 - - - - - - -
17/12:30am 15.4 NNW 23 30 1006.7 - 0.2 - - - - - - -
17/12:00am 15.3 NNW 23 29 1007.1 - 0.2 - - - - - - -
 
Date/Time
EDT
Temp
°C
Wind Pressure Rain since
9am
mm
Weather Cloud Vis
km
Sea
Height
m
Swell
Dir  Spd
kts
Gust
kts
hPa Trend Height
m
Period
s
Dir
16/11:30pm 15.4 NNW 21 28 1007.4 - 0.2 - - - - - - -
16/11:00pm 15.4 NW 25 31 1007.9 - 0.2 - - - - - - -
16/10:30pm 15.4 NW 25 30 1008.4 - 0.2 - - - - - - -
16/10:00pm 15.4 NW 24 28 1008.5 - 0.2 - - - - - - -
16/09:30pm 15.2 NW 26 32 1008.4 - 0.2 - - - - - - -
16/09:00pm 15.3 NW 24 29 1008.4 - 0.2 - - - - - - -
16/08:30pm 15.2 NNW 24 29 1008.4 - 0.2 - - - - - - -
16/08:00pm 15.4 NNW 25 31 1008.3 - 0.2 - - - - - - -
16/07:30pm 15.5 NNW 24 31 1008.4 - 0.2 - - - - - - -
16/07:00pm 15.4 NNW 25 31 1008.4 - 0.2 - - - - - - -
16/06:30pm 15.5 NNW 25 30 1008.5 - 0.2 - - - - - - -
16/06:00pm 16.5 NNW 23 28 1008.4 - 0.2 - - - - - - -
16/05:30pm 16.8 NW 24 29 1008.8 - 0.2 - - - - - - -
16/05:00pm 16.5 NNW 21 29 1009.3 - 0.2 - - - - - - -
16/04:30pm 16.3 NW 23 27 1009.7 - 0.2 - - - - - - -
16/04:00pm 16.8 NW 24 28 1010.0 - 0.2 - - - - - - -
16/03:30pm 16.7 NW 21 28 1010.2 - 0.2 - - - - - - -
16/03:00pm 16.2 NW 22 28 1010.6 - 0.2 - - - - - - -
16/02:30pm 15.0 NW 21 27 1010.8 - 0.2 - - - - - - -
16/02:00pm 16.1 NW 20 25 1011.3 - 0.2 - - - - - - -
16/01:30pm 14.8 NW 21 25 1011.6 - 0.2 - - - - - - -
16/01:00pm 13.9 NW 23 29 1011.9 - 0.2 Rain - - - - - -
16/12:30pm 16.2 NW 22 27 1011.9 - 0.0 - - - - - - -
16/12:00pm 15.4 NW 19 25 1012.0 - 0.0 - - - - - - -
16/11:30am 14.1 NW 23 29 1012.1 - 0.0 - - - - - - -
16/11:00am 15.1 NW 22 27 1012.1 - 0.0 - - - - - - -
16/10:30am 14.5 NW 20 28 1012.4 - 0.0 - - - - - - -
16/10:00am 14.8 NW 19 23 1012.5 - 0.0 - - - - - - -
16/09:30am 14.0 NW 20 26 1012.6 - 0.0 - - - - - - -
16/09:00am 14.1 WNW 19 24 1012.5 - 1.0 - - - - - - -
16/08:36am 13.7 WNW 21 31 1012.4 - 1.0 - - - - - - -
16/08:30am 13.7 NW 20 25 1012.3 - 1.0 - - - - - - -
16/08:00am 13.8 NW 17 21 1012.0 - 1.0 - - - - - - -
16/07:30am 13.4 WNW 18 22 1011.9 - 1.0 - - - - - - -
16/07:00am 13.1 WNW 20 24 1011.9 - 1.0 - - - - - - -
16/06:30am 13.0 W 16 20 1011.6 - 1.0 - - - - - - -
16/06:00am 13.5 WNW 19 23 1011.7 - 1.0 - - - - - - -
16/05:30am 13.0 WNW 18 22 1011.5 - 1.0 - - - - - - -
16/05:05am 13.1 W 18 29 1011.6 - 1.0 - - - - - - -
16/05:00am 13.1 W 16 20 1011.6 - 1.0 - - - - - - -
16/04:30am 13.4 WNW 18 24 1011.5 - 1.0 - - - - - - -
16/04:00am 14.1 WNW 20 24 1011.3 - 1.0 - - - - - - -
16/03:30am 13.9 WNW 18 22 1011.5 - 1.0 - - - - - - -
16/03:00am 13.6 WNW 23 29 1011.7 - 1.0 - - - - - - -
16/02:30am 13.1 WNW 21 25 1011.9 - 1.0 - - - - - - -
16/02:00am 13.4 WNW 22 29 1011.9 - 1.0 - - - - - - -
16/01:30am 12.4 NW 19 23 1012.3 - 1.0 - - - - - - -
16/01:00am 11.6 WNW 24 29 1012.8 - 1.0 Recent precip. - - - - - -
16/12:30am 12.8 WNW 24 28 1012.9 - 0.6 - - - - - - -
16/12:26am 13.1 WNW 24 30 1012.9 - 0.6 - - - - - - -
16/12:00am 14.1 NW 21 27 1012.8 - 0.6 - - - - - - -
 
Date/Time
EDT
Temp
°C
Wind Pressure Rain since
9am
mm
Weather Cloud Vis
km
Sea
Height
m
Swell
Dir  Spd
kts
Gust
kts
hPa Trend Height
m
Period
s
Dir
15/11:30pm 13.8 NW 22 28 1013.0 - 0.6 - - - - - - -
15/11:00pm 13.9 NW 21 26 1013.3 - 0.6 - - - - - - -
15/10:30pm 13.6 NW 20 28 1013.6 - 0.6 - - - - - - -
15/10:00pm 13.4 NW 20 25 1013.7 - 0.6 - - - - - - -
15/09:30pm 12.7 NW 19 25 1013.7 - 0.6 - - - - - - -
15/09:00pm 12.2 WNW 23 29 1013.8 - 0.6 Rain - - - - - -
15/08:49pm 13.0 NW 20 30 1013.7 - 0.4 - - - - - - -
15/08:30pm 13.0 NW 19 25 1013.8 - 0.4 - - - - - - -
15/08:00pm 12.5 NW 23 30 1013.9 - 0.4 - - - - - - -
15/07:30pm 12.9 NW 20 25 1013.7 - 0.4 - - - - - - -
15/07:00pm 12.5 WNW 22 29 1013.8 - 0.4 Recent precip. - - - - - -
15/06:30pm 13.2 NW 20 25 1013.9 - 0.4 - - - - - - -
15/06:00pm 12.7 WNW 24 29 1014.0 - 0.2 Recent precip. - - - - - -
15/05:30pm 14.6 NW 20 26 1014.1 - 0.0 - - - - - - -
15/05:00pm 14.8 NW 22 26 1014.3 - 0.0 - - - - - - -
15/04:30pm 15.3 NW 22 28 1014.6 - 0.0 - - - - - - -
15/04:00pm 14.9 NW 22 27 1014.7 - 0.0 - - - - - - -
15/03:30pm 15.2 WNW 20 25 1014.9 - 0.0 - - - - - - -
15/03:00pm 14.9 WNW 21 26 1014.9 - 0.0 - - - - - - -
15/02:30pm 14.4 NW 21 28 1014.7 - 0.0 - - - - - - -
15/02:00pm 15.3 NW 21 26 1014.7 - 0.0 - - - - - - -
15/01:30pm 14.7 NW 19 24 1015.0 - 0.0 - - - - - - -
15/01:00pm 14.9 NW 17 22 1015.0 - 0.0 - - - - - - -
15/12:30pm 13.2 WNW 23 29 1015.1 - 0.0 - - - - - - -
15/12:00pm 14.9 NW 18 22 1014.9 - 0.0 - - - - - - -
15/11:30am 14.1 WNW 18 23 1014.9 - 0.0 - - - - - - -
15/11:00am 13.3 WNW 21 25 1015.0 - 0.0 - - - - - - -
15/10:30am 13.5 WNW 19 25 1014.8 - 0.0 - - - - - - -
15/10:00am 13.5 WNW 22 27 1014.5 - 0.0 - - - - - - -
15/09:30am 12.9 WNW 19 26 1014.4 - 0.0 - - - - - - -
15/09:00am 13.2 WNW 17 21 1014.1 - 0.2 - - - - - - -
15/08:30am 12.6 WNW 21 25 1013.8 - 0.2 - - - - - - -
15/08:00am 12.9 NW 18 21 1013.3 - 0.2 - - - - - - -
15/07:30am 12.7 WNW 16 19 1013.3 - 0.2 - - - - - - -
15/07:00am 12.6 WNW 21 25 1013.2 - 0.2 - - - - - - -
15/06:30am 12.7 WNW 17 21 1013.0 - 0.2 - - - - - - -
15/06:00am 12.9 W 18 21 1012.7 - 0.2 - - - - - - -
15/05:30am 12.8 W 19 25 1012.2 - 0.2 - - - - - - -
15/05:00am 12.3 W 19 24 1012.1 - 0.2 - - - - - - -
15/04:30am 12.6 WNW 19 24 1011.8 - 0.2 - - - - - - -
15/04:00am 12.7 W 21 27 1011.4 - 0.2 - - - - - - -
15/03:30am 12.1 W 21 28 1011.7 - 0.2 - - - - - - -
15/03:00am 12.7 W 19 23 1011.5 - 0.2 - - - - - - -
15/02:30am 12.5 W 16 19 1011.6 - 0.2 - - - - - - -
15/02:00am 12.5 W 18 22 1011.6 - 0.2 - - - - - - -
15/01:30am 12.4 W 16 19 1011.6 - 0.2 - - - - - - -
15/01:00am 12.4 W 17 21 1011.5 - 0.2 - - - - - - -
15/12:30am 12.7 W 19 26 1011.6 - 0.2 - - - - - - -
15/12:00am 12.6 W 17 22 1011.5 - 0.2 - - - - - - -
 
Date/Time
EDT
Temp
°C
Wind Pressure Rain since
9am
mm
Weather Cloud Vis
km
Sea
Height
m
Swell
Dir  Spd
kts
Gust
kts
hPa Trend Height
m
Period
s
Dir
14/11:30pm 12.2 WSW 21 26 1011.3 - 0.2 - - - - - - -
14/11:00pm 12.6 W 23 30 1011.0 - 0.2 - - - - - - -
14/10:30pm 12.4 W 20 25 1011.0 - 0.2 - - - - - - -
14/10:00pm 13.1 W 21 26 1010.6 - 0.2 - - - - - - -
14/09:30pm 12.8 W 21 27 1010.1 - 0.2 - - - - - - -
14/09:00pm 12.8 W 18 24 1009.5 - 0.2 - - - - - - -
14/08:30pm 12.8 W 23 28 1009.0 - 0.2 - - - - - - -
14/08:00pm 13.1 W 24 29 1008.3 - 0.2 - - - - - - -
14/07:30pm 13.1 W 23 29 1007.9 - 0.2 - - - - - - -
14/07:08pm 13.1 W 23 37 1007.3 - 0.2 - - - - - - -
14/07:00pm 13.1 W 22 28 1007.2 - 0.2 - - - - - - -
14/06:30pm 13.4 W 22 27 1006.7 - 0.2 - - - - - - -
14/06:00pm 13.8 W 22 28 1006.1 - 0.2 - - - - - - -
14/05:30pm 13.4 W 23 29 1005.6 - 0.2 - - - - - - -
14/05:00pm 14.1 W 22 29 1005.0 - 0.2 - - - - - - -
14/04:37pm 13.4 W 26 36 1004.6 - 0.2 - - - - - - -
14/04:30pm 13.2 W 27 36 1004.3 - 0.2 - - - - - - -
14/04:00pm 14.6 W 24 29 1003.6 - 0.2 - - - - - - -
14/03:30pm 14.4 W 24 30 1003.0 - 0.2 - - - - - - -
14/03:05pm 13.2 WSW 24 34 1002.5 - 0.2 - - - - - - -
14/03:00pm 12.7 W 28 35 1002.4 - 0.2 - - - - - - -
14/02:53pm 14.0 W 25 35 1002.1 - 0.2 - - - - - - -
14/02:30pm 14.6 W 28 35 1001.3 - 0.2 - - - - - - -
14/02:00pm 14.8 W 28 34 1000.6 - 0.2 - - - - - - -

Other Formats:

Comma delimited format used in spreadsheet applications
http://www.bom.gov.au/fwo/IDT60701/IDT60701.95961.axf

JavaScript Object Notation format (JSON) in row-major order
http://www.bom.gov.au/fwo/IDT60701/IDT60701.95961.json